Flugplatz Lauenbrück

Für EDHU sind keine METAR/TAF Berichte vorhanden.
Es werden die Flugwettermeldungen vom Flugplatz Hamburg-Finkenwerder in 40 km Entfernung angezeigt.

Bericht für EDHI

vom 20.10. um 03:20 UTC

Wind 12 kt aus 220°

Sichtweite 10 km oder mehr

aufgelockert bewölkt in 4700 ft

Temperatur 15.0°C

Taupunkt 13.0°C

Luftfeuchtigkeit 88%

Luftdruck 1006 hPa

EDHI 200320Z AUTO 22012KT 9999 // SCT047/// 15/13 Q1006

Prognose für EDHI

vom 20.10. um 03:00 UTC

Zwischen 04:00 UTC und 06:00 UTC

Wind 12 kt aus 220°

Sichtweite 10 km oder mehr

aufgelockert bewölkt in 3500 ft


Zwischen 06:00 und 09:00 UTC übergehend zu

Wind 15 kt aus 220° in Böen 25 kt

Sichtweite 10 km oder mehr

aufgelockert bewölkt in 3500 ft


Zwischen 09:00 UTC und 12:00 UTC zeitweise

Wind 20 kt aus 240° in Böen 35 kt

TAF EDHI 200300Z 2004/2012 22012KT 9999 SCT035 BECMG 2006/2009 22015G25KT TEMPO 2009/2012 24020G35KT
Impressum